Time;durP1;ratioP1;P1;durP2;ratioP2;P2;SDS_P1;SDS_P2;PMS_P1;PMS_P2;Temp;Humidity;BMP_temperature;BMP_pressure;BME280_temperature;BME280_humidity;BME280_pressure;Samples;Min_cycle;Max_cycle;Signal;HPM_P1;HPM_P2
2021/12/06 00:00:47;;;;;;;38.03;24.90;;;;;;;4.12;92.58;101135.56;5070112;28;20039;-63
2021/12/06 00:03:16;;;;;;;41.73;25.57;;;;;;;4.13;92.36;101136.41;5069544;28;20154;-63
2021/12/06 00:05:42;;;;;;;37.20;25.45;;;;;;;4.12;92.53;101130.31;5070569;28;20530;-63
2021/12/06 00:08:07;;;;;;;39.83;26.20;;;;;;;4.15;92.77;101142.38;5068698;28;20601;-63
2021/12/06 00:10:33;;;;;;;43.17;26.77;;;;;;;4.14;92.67;101146.78;5069975;28;20016;-63
2021/12/06 00:13:00;;;;;;;38.70;26.13;;;;;;;4.12;92.62;101137.38;5069307;28;20725;-63
2021/12/06 00:15:27;;;;;;;39.27;26.40;;;;;;;4.11;92.52;101143.56;5068595;28;20024;-63
2021/12/06 00:17:53;;;;;;;38.57;25.93;;;;;;;4.12;92.44;101151.34;5069446;28;20024;-63
2021/12/06 00:20:18;;;;;;;42.70;26.60;;;;;;;4.12;92.34;101153.13;5069557;28;20020;-63
2021/12/06 00:22:44;;;;;;;41.73;26.53;;;;;;;4.12;92.48;101155.75;5069956;28;20024;-63
2021/12/06 00:25:10;;;;;;;41.27;26.80;;;;;;;4.13;92.55;101157.44;5068606;28;20028;-63
2021/12/06 00:27:38;;;;;;;41.40;26.27;;;;;;;4.12;92.73;101161.00;5067623;28;20055;-63
2021/12/06 00:30:06;;;;;;;37.77;25.20;;;;;;;4.13;92.74;101157.44;5069697;28;20032;-63
2021/12/06 00:32:32;;;;;;;40.97;25.93;;;;;;;4.15;92.49;101158.97;5069768;28;20023;-63
2021/12/06 00:34:57;;;;;;;38.07;24.67;;;;;;;4.15;92.51;101155.50;5067085;28;20024;-63
2021/12/06 00:37:31;;;;;;;39.00;26.30;;;;;;;4.15;92.51;101158.97;5070869;28;20021;-63
2021/12/06 00:39:59;;;;;;;39.47;26.20;;;;;;;4.15;92.50;101166.03;5072248;28;20024;-63
2021/12/06 00:42:27;;;;;;;41.53;26.30;;;;;;;4.15;92.42;101176.53;5069051;28;20016;-63
2021/12/06 00:44:53;;;;;;;37.20;26.03;;;;;;;4.13;92.61;101167.94;5069658;28;20021;-63
2021/12/06 00:47:19;;;;;;;40.57;25.70;;;;;;;4.16;92.47;101178.22;5068924;28;20457;-63
2021/12/06 00:49:46;;;;;;;37.87;25.07;;;;;;;4.15;92.19;101192.31;5068625;28;20041;-63
2021/12/06 00:52:12;;;;;;;39.27;26.23;;;;;;;4.15;92.40;101198.41;5069068;28;20044;-63
2021/12/06 00:54:38;;;;;;;36.33;25.40;;;;;;;4.15;92.30;101205.44;5068930;28;20024;-63
2021/12/06 00:57:06;;;;;;;38.17;25.73;;;;;;;4.16;92.48;101209.75;5069367;28;20088;-63
2021/12/06 00:59:31;;;;;;;39.00;26.40;;;;;;;4.17;92.38;101220.16;5066585;28;20069;-63
2021/12/06 01:01:57;;;;;;;37.37;25.97;;;;;;;4.14;92.45;101227.44;5069163;28;20025;-63
2021/12/06 01:04:23;;;;;;;40.60;26.77;;;;;;;4.14;92.38;101232.69;5068823;28;20025;-63
2021/12/06 01:06:48;;;;;;;43.37;26.70;;;;;;;4.14;92.04;101227.44;5069504;28;20020;-63
2021/12/06 01:09:13;;;;;;;40.03;27.63;;;;;;;4.07;92.13;101216.56;5067460;28;20515;-63
2021/12/06 01:11:39;;;;;;;39.70;26.67;;;;;;;4.11;92.33;101223.25;5069429;28;20673;-63
2021/12/06 01:14:04;;;;;;;40.90;26.20;;;;;;;4.10;92.27;101216.31;5068667;28;20027;-63
2021/12/06 01:16:30;;;;;;;41.13;27.50;;;;;;;4.08;92.06;101218.25;5068806;28;20560;-63
2021/12/06 01:18:56;;;;;;;41.40;26.80;;;;;;;4.07;92.11;101221.81;5067676;28;20024;-63
2021/12/06 01:21:37;;;;;;;40.03;27.67;;;;;;;4.03;92.14;101218.56;5068397;28;20022;-63
2021/12/06 01:24:03;;;;;;;38.43;26.20;;;;;;;4.04;92.12;101219.41;5068405;28;20744;-63
2021/12/06 01:26:58;;;;;;;43.80;26.93;;;;;;;4.03;92.07;101220.38;5068557;28;20115;-63
2021/12/06 01:40:09;;;;;;;40.40;26.77;;;;;;;4.03;91.98;101238.75;5048587;28;20078;-63
2021/12/06 01:42:35;;;;;;;42.53;27.30;;;;;;;4.02;92.18;101235.28;5062208;28;20024;-63
2021/12/06 01:45:01;;;;;;;44.13;27.80;;;;;;;4.00;92.26;101241.63;5067989;28;20399;-63
2021/12/06 01:47:35;;;;;;;41.90;28.07;;;;;;;4.03;92.30;101250.09;5067874;28;20089;-63
2021/12/06 01:50:27;;;;;;;43.33;28.47;;;;;;;3.98;92.24;101239.13;5067803;28;20019;-63
2021/12/06 01:52:58;;;;;;;45.40;27.67;;;;;;;4.02;92.15;101243.19;5064071;28;20058;-63
2021/12/06 01:55:27;;;;;;;48.80;28.87;;;;;;;4.01;92.28;101245.94;5067615;28;20381;-63
2021/12/06 01:57:54;;;;;;;42.73;27.97;;;;;;;3.99;92.16;101250.47;5067211;28;20115;-63
2021/12/06 02:00:27;;;;;;;44.37;28.03;;;;;;;4.00;92.39;101252.97;5068124;28;20023;-63
2021/12/06 02:02:52;;;;;;;42.70;27.73;;;;;;;3.99;92.47;101255.72;5068250;28;20044;-63
2021/12/06 02:05:18;;;;;;;40.97;27.77;;;;;;;3.98;92.15;101261.94;5067512;28;20141;-63
2021/12/06 02:07:43;;;;;;;41.97;27.13;;;;;;;3.99;92.15;101255.72;5059794;28;20028;-63
2021/12/06 02:10:11;;;;;;;41.50;26.70;;;;;;;3.96;92.17;101254.16;5067955;28;20024;-63
2021/12/06 02:12:36;;;;;;;39.20;26.40;;;;;;;3.94;91.95;101252.63;5066084;28;20364;-63
2021/12/06 02:17:56;;;;;;;43.13;27.87;;;;;;;3.97;92.37;101255.00;5062098;28;20704;-63
2021/12/06 02:20:28;;;;;;;42.13;27.67;;;;;;;3.96;92.21;101254.16;5065520;28;20040;-63
2021/12/06 02:22:55;;;;;;;42.53;28.60;;;;;;;3.96;92.16;101267.31;5064714;28;20136;-63
2021/12/06 02:25:21;;;;;;;45.23;28.37;;;;;;;3.96;92.30;101266.47;5063053;28;20033;-63
2021/12/06 02:27:50;;;;;;;47.17;27.47;;;;;;;3.94;92.36;101277.09;5066183;28;20051;-63
2021/12/06 02:30:17;;;;;;;42.03;26.95;;;;;;;3.96;92.11;101272.56;5067058;28;20033;-63
2021/12/06 02:32:44;;;;;;;42.70;27.23;;;;;;;3.94;92.29;101278.88;5067011;28;20024;-63
2021/12/06 02:35:15;;;;;;;42.47;27.57;;;;;;;3.89;92.19;101279.25;5066920;28;20024;-63
2021/12/06 02:37:40;;;;;;;42.17;26.03;;;;;;;3.88;92.06;101279.38;5060166;28;20039;-63
2021/12/06 02:40:20;;;;;;;42.07;26.03;;;;;;;3.86;91.77;101282.09;5066824;28;20031;-63
2021/12/06 02:42:46;;;;;;;45.13;28.03;;;;;;;3.83;91.95;101295.47;5066264;28;20037;-63
2021/12/06 02:45:15;;;;;;;43.43;28.27;;;;;;;3.80;91.81;101300.13;5067025;28;20037;-63
2021/12/06 02:47:40;;;;;;;41.37;26.87;;;;;;;3.77;91.81;101303.81;5066926;28;20032;-63
2021/12/06 02:50:09;;;;;;;44.27;28.80;;;;;;;3.75;91.70;101305.69;5066780;28;20029;-63
2021/12/06 02:52:35;;;;;;;40.53;26.77;;;;;;;3.79;92.17;101301.09;5067550;28;20107;-63
2021/12/06 02:55:09;;;;;;;45.67;27.80;;;;;;;3.79;92.20;101303.72;5067126;28;20331;-63
2021/12/06 02:57:37;;;;;;;43.17;27.53;;;;;;;3.77;92.29;101306.44;5063577;28;20028;-63
2021/12/06 03:00:08;;;;;;;43.60;27.87;;;;;;;3.82;92.57;101303.47;5069368;28;20035;-63
2021/12/06 03:02:34;;;;;;;43.27;28.57;;;;;;;3.80;92.48;101308.00;5070651;28;20024;-63
2021/12/06 03:04:59;;;;;;;42.90;27.73;;;;;;;3.79;92.28;101304.53;5071267;28;20035;-63
2021/12/06 03:07:28;;;;;;;41.33;27.07;;;;;;;3.78;92.20;101305.50;5070721;28;20472;-63
2021/12/06 03:09:55;;;;;;;45.53;27.00;;;;;;;3.75;92.16;101305.69;5070046;28;20444;-64
2021/12/06 03:12:23;;;;;;;42.07;27.33;;;;;;;3.73;92.24;101302.34;5069291;28;20104;-64
2021/12/06 03:14:55;;;;;;;43.43;26.97;;;;;;;3.69;92.38;101300.91;5071460;28;20070;-63
2021/12/06 03:17:22;;;;;;;40.70;27.20;;;;;;;3.68;92.17;101304.50;5070924;28;20103;-63
2021/12/06 03:19:49;;;;;;;44.33;27.07;;;;;;;3.66;92.06;101307.25;5070082;28;20108;-63
2021/12/06 03:22:15;;;;;;;43.50;27.83;;;;;;;3.67;92.19;101308.91;5070575;28;20041;-63
2021/12/06 03:24:41;;;;;;;44.73;27.83;;;;;;;3.66;92.46;101312.50;5071004;28;20440;-63
2021/12/06 03:27:07;;;;;;;44.27;28.90;;;;;;;3.66;92.31;101307.25;5070955;28;20399;-63
2021/12/06 03:29:33;;;;;;;43.77;28.27;;;;;;;3.71;92.62;101306.88;5068348;28;20485;-63
2021/12/06 03:31:58;;;;;;;42.63;27.27;;;;;;;3.74;92.44;101304.03;5071029;28;20043;-63
2021/12/06 03:34:26;;;;;;;45.90;28.70;;;;;;;3.75;92.56;101305.69;5066230;28;20021;-63
2021/12/06 03:36:53;;;;;;;46.97;28.53;;;;;;;3.78;92.66;101308.13;5068973;28;20028;-63
2021/12/06 03:39:29;;;;;;;41.73;28.00;;;;;;;3.80;92.92;101313.25;5070057;28;20107;-63
2021/12/06 03:41:58;;;;;;;45.17;27.63;;;;;;;3.77;92.77;101314.34;5068809;28;20042;-63
2021/12/06 03:44:24;;;;;;;47.17;28.37;;;;;;;3.79;92.81;101312.44;5070273;28;20028;-63
2021/12/06 03:46:53;;;;;;;45.60;28.63;;;;;;;3.78;92.78;101316.00;5069461;28;20402;-63
2021/12/06 03:49:19;;;;;;;47.67;29.10;;;;;;;3.79;92.56;101319.47;5069987;28;20111;-63
2021/12/06 03:51:46;;;;;;;46.30;28.77;;;;;;;3.78;92.56;101315.19;5074850;28;20041;-63
2021/12/06 03:54:16;;;;;;;46.50;29.07;;;;;;;3.80;92.77;101313.25;5068787;28;20031;-63
2021/12/06 03:56:42;;;;;;;49.30;29.83;;;;;;;3.80;92.65;101318.53;5070451;28;20623;-63
2021/12/06 03:59:08;;;;;;;48.67;30.23;;;;;;;3.77;92.69;101310.88;5068969;28;20102;-63
2021/12/06 04:01:33;;;;;;;46.07;29.40;;;;;;;3.77;92.49;101311.72;5070294;28;20476;-63
2021/12/06 04:04:01;;;;;;;49.07;30.40;;;;;;;3.75;92.84;101316.22;5067721;28;20027;-63
2021/12/06 04:06:26;;;;;;;46.73;28.80;;;;;;;3.74;92.56;101319.78;5068972;28;20020;-63
2021/12/06 04:08:51;;;;;;;45.00;29.27;;;;;;;3.76;92.69;101320.53;5067894;28;20081;-63
2021/12/06 04:11:17;;;;;;;49.20;30.20;;;;;;;3.75;92.68;101326.72;5070429;28;20032;-63
2021/12/06 04:13:43;;;;;;;46.33;29.33;;;;;;;3.79;92.50;101335.22;5070520;28;20028;-63
2021/12/06 04:16:08;;;;;;;45.03;28.83;;;;;;;3.77;92.60;101329.25;5070348;28;20095;-63
2021/12/06 04:18:34;;;;;;;43.97;28.03;;;;;;;3.81;92.54;101326.28;5068890;28;20048;-63
2021/12/06 04:20:59;;;;;;;44.63;28.23;;;;;;;3.77;92.62;101322.22;5070007;28;20031;-63
2021/12/06 04:23:25;;;;;;;47.27;28.90;;;;;;;3.78;92.37;101320.44;5070066;28;20074;-63
2021/12/06 04:25:50;;;;;;;44.53;28.50;;;;;;;3.74;92.53;101311.91;5069735;28;20135;-63
2021/12/06 04:28:19;;;;;;;45.77;29.07;;;;;;;3.75;92.38;101318.84;5068601;28;20041;-63
2021/12/06 04:30:46;;;;;;;42.90;27.67;;;;;;;3.68;92.62;101313.22;5069194;28;20013;-63
2021/12/06 04:33:12;;;;;;;45.90;28.23;;;;;;;3.62;92.40;101312.84;5068867;28;20021;-63
2021/12/06 04:35:38;;;;;;;44.40;27.70;;;;;;;3.55;92.08;101320.34;5069775;28;20082;-63
2021/12/06 04:38:05;;;;;;;46.90;28.60;;;;;;;3.58;92.21;101327.16;5068499;28;20418;-63
2021/12/06 04:40:31;;;;;;;49.30;28.10;;;;;;;3.55;92.24;101324.75;5069599;28;20086;-63
2021/12/06 04:42:57;;;;;;;48.33;29.20;;;;;;;3.56;92.16;101327.28;5067668;28;20028;-63
2021/12/06 04:45:23;;;;;;;44.37;27.77;;;;;;;3.51;92.36;101326.78;5065843;28;20082;-63
2021/12/06 04:47:50;;;;;;;39.70;26.13;;;;;;;3.43;92.08;101336.97;5069442;28;20032;-63
2021/12/06 04:50:17;;;;;;;42.57;27.47;;;;;;;3.35;92.15;101337.53;5070370;28;20403;-63
2021/12/06 04:52:43;;;;;;;41.90;26.83;;;;;;;3.28;92.15;101332.88;5071179;28;20020;-63
2021/12/06 04:55:20;;;;;;;38.90;25.67;;;;;;;3.21;91.74;101345.59;5070361;28;20028;-63
2021/12/06 04:57:46;;;;;;;37.50;24.40;;;;;;;3.09;91.92;101344.69;5069058;28;20028;-63
2021/12/06 05:00:33;;;;;;;42.30;27.37;;;;;;;3.13;92.05;101347.91;5070163;28;20515;-63
2021/12/06 05:02:59;;;;;;;42.70;25.73;;;;;;;3.09;92.07;101347.31;5059139;28;20035;-63
2021/12/06 05:05:33;;;;;;;41.50;26.40;;;;;;;3.10;92.23;101353.38;5069584;28;20028;-63
2021/12/06 05:08:05;;;;;;;43.03;26.70;;;;;;;3.09;92.33;101356.97;5059835;28;20039;-63
2021/12/06 05:10:30;;;;;;;44.77;27.63;;;;;;;3.03;92.54;101358.25;5069655;28;20103;-63
2021/12/06 05:12:56;;;;;;;43.70;28.07;;;;;;;2.99;92.31;101363.81;5069774;28;20542;-63
2021/12/06 05:15:22;;;;;;;41.87;27.07;;;;;;;2.96;92.17;101358.78;5069661;28;20028;-63
2021/12/06 05:17:47;;;;;;;38.23;25.03;;;;;;;2.88;92.18;101371.59;5067050;28;20047;-63
2021/12/06 05:20:14;;;;;;;40.83;26.57;;;;;;;2.77;91.84;101365.31;5067743;28;20039;-63
2021/12/06 05:22:40;;;;;;;48.20;23.73;;;;;;;2.59;91.34;101347.41;5068608;28;20021;-63
2021/12/06 05:25:07;;;;;;;254.43;20.30;;;;;;;2.51;91.32;101362.84;5068321;28;20071;-63
2021/12/06 05:27:32;;;;;;;60.77;14.70;;;;;;;2.43;91.06;101366.00;5061821;28;20249;-63
2021/12/06 05:30:01;;;;;;;336.57;21.17;;;;;;;2.35;90.91;101366.53;5068241;28;20664;-63
2021/12/06 05:32:30;;;;;;;191.82;19.52;;;;;;;2.32;91.31;101360.66;5068390;28;20047;-63
2021/12/06 05:35:03;;;;;;;44.35;20.13;;;;;;;2.33;91.17;101362.34;5066384;28;20104;-63
2021/12/06 05:37:29;;;;;;;37.63;23.70;;;;;;;2.33;91.68;101357.09;5067976;28;20033;-63
2021/12/06 05:39:55;;;;;;;126.73;19.47;;;;;;;2.23;91.59;101345.53;5067476;28;20025;-63
2021/12/06 05:42:21;;;;;;;344.27;23.97;;;;;;;2.20;91.36;101361.47;5068509;28;20022;-63
2021/12/06 05:44:47;;;;;;;206.37;19.63;;;;;;;2.18;91.53;101351.09;5068306;28;20094;-63
2021/12/06 05:47:13;;;;;;;294.67;19.10;;;;;;;2.07;91.30;101361.47;5062462;28;20025;-63
2021/12/06 05:49:38;;;;;;;134.93;18.80;;;;;;;1.99;91.29;101361.97;5067047;28;20024;-63
2021/12/06 05:52:04;;;;;;;316.37;19.83;;;;;;;1.79;91.20;101357.22;5068212;28;20526;-63
2021/12/06 05:54:30;;;;;;;456.57;24.73;;;;;;;1.73;91.01;101355.00;5067769;28;20020;-63
2021/12/06 05:56:56;;;;;;;398.40;21.30;;;;;;;1.68;91.44;101360.53;5066127;28;20043;-63
2021/12/06 05:59:23;;;;;;;175.13;19.47;;;;;;;1.73;91.49;101357.59;5066739;28;20086;-63
2021/12/06 06:01:50;;;;;;;245.07;19.40;;;;;;;1.73;91.73;101366.31;5066691;28;20020;-63
2021/12/06 06:04:16;;;;;;;196.27;20.37;;;;;;;1.76;91.96;101362.66;5068331;28;20020;-63
2021/12/06 06:06:41;;;;;;;293.03;19.23;;;;;;;1.76;91.94;101373.16;5068047;28;20382;-63
2021/12/06 06:09:06;;;;;;;225.47;18.17;;;;;;;1.70;91.86;101370.91;5066434;28;20031;-63
2021/12/06 06:11:34;;;;;;;219.63;18.10;;;;;;;1.62;91.80;101389.75;5067450;28;20082;-63
2021/12/06 06:14:01;;;;;;;248.13;19.83;;;;;;;1.46;91.96;101378.59;5068109;28;20697;-63
2021/12/06 06:16:31;;;;;;;258.07;18.03;;;;;;;1.32;91.87;101386.47;5067845;28;20020;-63
2021/12/06 06:18:56;;;;;;;196.57;15.67;;;;;;;1.11;91.88;101391.28;5067198;28;20943;-63
2021/12/06 06:21:22;;;;;;;401.17;19.80;;;;;;;0.97;91.89;101392.16;5067262;28;20115;-63
2021/12/06 06:23:47;;;;;;;274.87;18.07;;;;;;;0.93;92.09;101395.91;5067161;28;20020;-63
2021/12/06 06:26:12;;;;;;;233.17;20.53;;;;;;;0.92;92.39;101402.91;5067385;28;20074;-64
2021/12/06 06:28:38;;;;;;;191.27;19.57;;;;;;;0.91;92.48;101398.59;5067572;28;20472;-63
2021/12/06 06:31:03;;;;;;;276.67;19.07;;;;;;;0.86;92.72;101405.88;5067312;28;20519;-63
2021/12/06 06:33:29;;;;;;;366.37;24.23;;;;;;;0.88;92.71;101406.66;5069233;28;20036;-63
2021/12/06 06:35:55;;;;;;;278.80;22.60;;;;;;;0.93;93.27;101412.44;5072469;28;20044;-63
2021/12/06 06:38:20;;;;;;;121.97;19.47;;;;;;;0.99;93.37;101398.13;5069096;28;20020;-63
2021/12/06 06:40:46;;;;;;;140.50;19.73;;;;;;;0.99;93.22;101392.06;5072476;28;20028;-63
2021/12/06 06:43:12;;;;;;;138.43;20.13;;;;;;;0.95;93.37;101401.03;5051111;28;20036;-63
2021/12/06 06:45:37;;;;;;;191.40;20.33;;;;;;;0.88;93.52;101397.97;5071074;28;20058;-63
2021/12/06 06:48:03;;;;;;;210.27;19.87;;;;;;;0.81;93.20;101394.84;5051378;28;20466;-63
2021/12/06 06:50:29;;;;;;;143.93;18.37;;;;;;;0.81;93.58;101407.09;5070321;28;20025;-63
2021/12/06 06:52:55;;;;;;;144.87;19.77;;;;;;;0.86;93.47;101399.81;5070447;28;20534;-63
2021/12/06 06:55:21;;;;;;;193.97;20.90;;;;;;;0.92;93.78;101409.91;5071406;28;20107;-63
2021/12/06 06:57:47;;;;;;;267.13;21.83;;;;;;;0.93;94.15;101409.81;5068201;28;20032;-63
2021/12/06 07:00:28;;;;;;;173.93;23.83;;;;;;;1.02;94.10;101418.84;5070671;28;20020;-63
2021/12/06 07:02:53;;;;;;;218.73;23.67;;;;;;;1.02;94.38;101415.41;5067058;28;20488;-63
2021/12/06 07:05:20;;;;;;;227.90;22.03;;;;;;;1.06;94.46;101409.88;5068710;28;20046;-63
2021/12/06 07:07:45;;;;;;;95.00;21.70;;;;;;;1.14;94.41;101410.22;5071289;28;20107;-63
2021/12/06 07:10:11;;;;;;;88.40;23.03;;;;;;;1.22;94.73;101407.16;5071403;28;20583;-63
2021/12/06 07:12:45;;;;;;;112.70;23.97;;;;;;;1.28;94.79;101413.78;5064226;28;20551;-63
2021/12/06 07:15:13;;;;;;;92.40;26.00;;;;;;;1.39;94.82;101420.00;5068277;28;20020;-63
2021/12/06 07:17:40;;;;;;;87.18;25.90;;;;;;;1.44;95.18;101419.69;5060731;28;20045;-63
2021/12/06 07:20:06;;;;;;;95.13;26.40;;;;;;;1.50;95.35;101429.81;5070685;28;20028;-63
2021/12/06 07:22:31;;;;;;;101.43;25.13;;;;;;;1.48;95.13;101432.53;5071087;28;20115;-63
2021/12/06 07:24:57;;;;;;;65.83;27.33;;;;;;;1.51;95.23;101432.31;5068687;28;20115;-63
2021/12/06 07:27:22;;;;;;;131.57;29.23;;;;;;;1.53;95.27;101434.84;5070710;28;20032;-63
2021/12/06 07:29:47;;;;;;;115.37;28.97;;;;;;;1.53;95.42;101440.06;5068468;28;20069;-63
2021/12/06 07:32:13;;;;;;;109.60;29.23;;;;;;;1.54;95.27;101445.22;5068914;28;20526;-63
2021/12/06 07:34:38;;;;;;;118.53;32.70;;;;;;;1.58;95.57;101445.00;5070098;28;20036;-63
2021/12/06 07:37:04;;;;;;;163.27;35.20;;;;;;;1.62;95.84;101459.56;5069202;28;20046;-63
2021/12/06 07:39:30;;;;;;;140.83;34.63;;;;;;;1.62;95.93;101451.72;5064029;28;20036;-63
2021/12/06 07:41:56;;;;;;;173.97;35.47;;;;;;;1.62;96.02;101456.97;5071701;28;20017;-64
2021/12/06 07:44:21;;;;;;;167.37;35.70;;;;;;;1.61;96.09;101450.03;5072470;28;20484;-63
2021/12/06 07:46:48;;;;;;;165.57;36.80;;;;;;;1.62;96.48;101446.50;5071858;28;20025;-63
2021/12/06 07:49:14;;;;;;;170.80;36.40;;;;;;;1.57;96.60;101438.94;5070448;28;20482;-63
2021/12/06 07:51:39;;;;;;;142.43;37.07;;;;;;;1.66;96.60;101438.34;5070864;28;20028;-63
2021/12/06 07:54:04;;;;;;;208.13;38.13;;;;;;;1.69;96.92;101432.06;5069610;28;20028;-63
2021/12/06 07:56:30;;;;;;;143.73;38.60;;;;;;;1.72;96.98;101432.69;5070151;28;20021;-63
2021/12/06 07:58:55;;;;;;;112.50;37.17;;;;;;;1.78;97.02;101434.09;5069788;28;20519;-63
2021/12/06 08:01:20;;;;;;;197.37;37.73;;;;;;;1.79;97.42;101425.31;5070847;28;20033;-63
2021/12/06 08:03:46;;;;;;;136.00;37.47;;;;;;;1.85;97.30;101424.91;5070301;28;20066;-63
2021/12/06 08:06:11;;;;;;;132.57;36.33;;;;;;;1.85;97.46;101422.28;5070648;28;20012;-63
2021/12/06 08:08:38;;;;;;;100.90;36.67;;;;;;;1.90;97.35;101414.97;5070110;28;20124;-63
2021/12/06 08:11:09;;;;;;;118.53;36.93;;;;;;;1.90;97.21;101420.19;5070909;28;20027;-63
2021/12/06 08:13:35;;;;;;;91.67;34.30;;;;;;;1.93;97.43;101414.75;5070952;28;20020;-63
2021/12/06 08:16:05;;;;;;;118.40;35.47;;;;;;;1.97;97.34;101418.00;5071130;28;20073;-63
2021/12/06 08:18:30;;;;;;;85.38;34.90;;;;;;;2.03;97.32;101404.53;5069816;28;20042;-63
2021/12/06 08:20:56;;;;;;;102.57;37.43;;;;;;;2.09;97.51;101399.72;5071222;28;20024;-63
2021/12/06 08:23:23;;;;;;;85.90;34.30;;;;;;;2.11;97.54;101405.69;5070370;28;20036;-63
2021/12/06 08:25:51;;;;;;;82.57;34.00;;;;;;;2.12;97.50;101410.00;5071018;28;20162;-63
2021/12/06 08:28:18;;;;;;;79.73;34.67;;;;;;;2.14;97.27;101413.34;5069691;28;20068;-63
2021/12/06 08:30:44;;;;;;;80.40;35.63;;;;;;;2.16;97.21;101421.94;5070719;28;20034;-63
2021/12/06 08:33:10;;;;;;;104.53;35.00;;;;;;;2.15;97.11;101422.88;5069723;28;20017;-63
2021/12/06 08:35:38;;;;;;;90.13;34.97;;;;;;;2.20;97.13;101424.34;5070669;28;20039;-63
2021/12/06 08:38:05;;;;;;;77.80;34.10;;;;;;;2.19;97.08;101431.38;5069102;28;20060;-64
2021/12/06 08:40:31;;;;;;;78.10;34.90;;;;;;;2.21;96.80;101429.50;5070592;28;20111;-63
2021/12/06 08:42:57;;;;;;;83.23;36.33;;;;;;;2.24;96.87;101449.41;5070248;28;20456;-63
2021/12/06 08:45:23;;;;;;;98.50;38.00;;;;;;;2.19;97.27;101452.34;5070144;28;20404;-64
2021/12/06 08:47:49;;;;;;;112.83;40.73;;;;;;;2.09;97.03;101448.66;5069373;28;20063;-64
2021/12/06 08:50:19;;;;;;;103.67;41.53;;;;;;;2.07;96.92;101456.63;5070373;28;20477;-63
2021/12/06 08:52:46;;;;;;;124.53;40.97;;;;;;;2.00;97.32;101447.47;5070115;28;20020;-63
2021/12/06 08:55:12;;;;;;;109.97;42.07;;;;;;;2.00;97.10;101452.69;5069953;28;20085;-63
2021/12/06 08:57:38;;;;;;;142.17;42.63;;;;;;;2.00;97.27;101452.69;5069222;28;20103;-63
2021/12/06 09:00:13;;;;;;;144.97;43.47;;;;;;;1.96;97.39;101459.06;5070191;28;20119;-65
2021/12/06 09:02:39;;;;;;;147.23;43.80;;;;;;;1.92;97.45;101470.69;5069637;28;20068;-63
2021/12/06 09:05:06;;;;;;;138.63;43.13;;;;;;;1.91;97.54;101473.41;5070231;28;20063;-63
2021/12/06 09:07:32;;;;;;;138.73;44.87;;;;;;;1.90;97.63;101469.13;5070080;28;20036;-63
2021/12/06 09:09:57;;;;;;;162.33;45.07;;;;;;;1.83;97.92;101463.44;5069041;28;20090;-63
2021/12/06 09:12:25;;;;;;;160.70;44.53;;;;;;;1.86;98.23;101466.69;5069379;28;20107;-63
2021/12/06 09:14:52;;;;;;;176.50;47.43;;;;;;;1.84;98.45;101458.09;5065262;28;20020;-63
2021/12/06 09:17:18;;;;;;;147.87;47.50;;;;;;;1.85;98.24;101459.78;5072991;28;20033;-63
2021/12/06 09:19:44;;;;;;;170.87;50.77;;;;;;;1.87;98.60;101464.94;5068889;28;20054;-63
2021/12/06 09:22:10;;;;;;;166.13;50.17;;;;;;;1.88;98.42;101458.75;5069413;28;20029;-63
2021/12/06 09:24:35;;;;;;;148.30;50.27;;;;;;;1.92;98.74;101456.75;5069852;28;20504;-63
2021/12/06 09:27:02;;;;;;;148.03;49.83;;;;;;;1.98;98.74;101470.28;5069003;28;20063;-63
2021/12/06 09:29:29;;;;;;;161.97;50.53;;;;;;;2.00;99.05;101459.72;5069111;28;20016;-63
2021/12/06 09:31:59;;;;;;;168.70;53.70;;;;;;;2.02;99.22;101470.94;5068855;28;20024;-63
2021/12/06 09:34:25;;;;;;;145.87;51.63;;;;;;;2.02;99.15;101466.53;5069593;28;20514;-63
2021/12/06 09:36:50;;;;;;;148.00;53.33;;;;;;;2.05;99.07;101460.28;5069872;28;20021;-63
2021/12/06 09:39:15;;;;;;;156.07;52.77;;;;;;;2.05;99.21;101455.03;5068542;28;20579;-63
2021/12/06 09:41:42;;;;;;;151.30;51.80;;;;;;;2.07;99.34;101455.78;5068438;28;20028;-63
2021/12/06 09:44:09;;;;;;;146.80;53.10;;;;;;;2.10;99.13;101455.56;5069712;28;20498;-63
2021/12/06 09:46:37;;;;;;;149.13;53.47;;;;;;;2.12;99.42;101466.78;5069195;28;20024;-63
2021/12/06 09:49:07;;;;;;;146.03;54.37;;;;;;;2.13;99.59;101465.84;5068057;28;20432;-63
2021/12/06 09:51:33;;;;;;;148.50;52.47;;;;;;;2.15;99.36;101471.81;5056925;28;20404;-63
2021/12/06 09:53:59;;;;;;;155.00;52.13;;;;;;;2.11;99.64;101465.09;5068727;28;20476;-63
2021/12/06 09:56:32;;;;;;;145.30;52.03;;;;;;;2.09;99.62;101472.22;5068816;28;20044;-63
2021/12/06 09:58:59;;;;;;;143.07;49.73;;;;;;;2.08;99.52;101473.16;5068060;28;20036;-63
2021/12/06 10:01:29;;;;;;;151.20;49.87;;;;;;;2.10;99.59;101468.66;5069419;28;20028;-63
2021/12/06 10:03:57;;;;;;;149.93;52.30;;;;;;;2.12;99.87;101461.56;5068349;28;20043;-63
2021/12/06 10:06:23;;;;;;;149.50;51.70;;;;;;;2.14;99.89;101463.13;5068899;28;20111;-63
2021/12/06 10:08:50;;;;;;;159.53;53.40;;;;;;;2.14;99.75;101455.25;5067162;28;20574;-63
2021/12/06 10:11:18;;;;;;;151.03;50.30;;;;;;;2.17;99.69;101455.06;5069250;28;20098;-63
2021/12/06 10:13:44;;;;;;;151.27;51.77;;;;;;;2.18;99.72;101464.59;5068780;28;20024;-63
2021/12/06 10:16:10;;;;;;;150.43;51.07;;;;;;;2.17;99.82;101443.75;5069069;28;20024;-63
2021/12/06 10:18:36;;;;;;;145.63;50.30;;;;;;;2.16;100.00;101436.81;5067867;28;20039;-63
2021/12/06 10:21:04;;;;;;;147.30;49.90;;;;;;;2.16;99.92;101427.19;5068592;28;20060;-63
2021/12/06 10:23:29;;;;;;;140.17;48.93;;;;;;;2.17;99.89;101431.47;5068177;28;20032;-63
2021/12/06 10:25:56;;;;;;;145.63;48.60;;;;;;;2.18;100.00;101419.22;5069179;28;20032;-63
2021/12/06 10:28:27;;;;;;;143.57;49.00;;;;;;;2.23;100.00;101419.75;5068369;28;20032;-63
2021/12/06 10:30:55;;;;;;;147.47;48.37;;;;;;;2.22;100.00;101415.44;5067849;28;20031;-63
2021/12/06 10:33:26;;;;;;;147.37;49.13;;;;;;;2.21;99.96;101418.16;5068610;28;20028;-63
2021/12/06 10:35:54;;;;;;;147.67;47.77;;;;;;;2.21;99.82;101428.66;5068722;28;20029;-63
2021/12/06 10:38:24;;;;;;;145.67;45.57;;;;;;;2.23;99.72;101421.53;5066786;28;20124;-63
2021/12/06 10:40:54;;;;;;;150.40;46.23;;;;;;;2.23;99.96;101421.53;5068131;28;20103;-63
2021/12/06 10:43:20;;;;;;;152.40;44.90;;;;;;;2.20;99.91;101406.00;5068616;28;20024;-63
2021/12/06 10:45:49;;;;;;;157.33;45.13;;;;;;;2.16;100.00;101392.28;5068941;28;20093;-63
2021/12/06 10:48:21;;;;;;;172.57;46.65;;;;;;;2.11;99.66;101399.63;5066770;28;20079;-64
2021/12/06 10:50:52;;;;;;;181.53;46.47;;;;;;;2.07;99.62;101391.13;5068517;28;20032;-63
2021/12/06 10:53:27;;;;;;;207.10;44.07;;;;;;;2.09;99.63;101393.63;5067439;28;20035;-63
2021/12/06 10:55:55;;;;;;;191.37;47.17;;;;;;;2.08;99.57;101381.47;5075304;28;20030;-63
2021/12/06 10:58:28;;;;;;;185.10;46.13;;;;;;;2.03;99.80;101367.88;5066648;28;20028;-63
2021/12/06 11:01:08;;;;;;;202.57;46.60;;;;;;;2.06;99.50;101370.28;5067993;28;20040;-63
2021/12/06 11:03:44;;;;;;;204.53;47.23;;;;;;;2.07;99.77;101359.69;5068100;28;20029;-63
2021/12/06 11:06:21;;;;;;;205.53;48.17;;;;;;;2.10;99.87;101359.47;5068550;28;20476;-63
2021/12/06 11:08:52;;;;;;;209.53;49.13;;;;;;;2.09;99.97;101360.41;5067331;28;20032;-63
2021/12/06 11:11:26;;;;;;;183.43;43.67;;;;;;;2.08;99.81;101355.28;5068346;28;20758;-64
2021/12/06 11:14:02;;;;;;;193.20;45.13;;;;;;;2.12;99.95;101354.97;5068312;28;20031;-63
2021/12/06 11:16:31;;;;;;;164.47;42.60;;;;;;;2.10;99.71;101354.25;5068171;28;20028;-63
2021/12/06 11:19:03;;;;;;;151.07;40.97;;;;;;;2.10;99.50;101342.91;5068967;28;20146;-63
2021/12/06 11:21:38;;;;;;;129.03;38.60;;;;;;;2.11;99.53;101341.97;5071110;28;20078;-63
2021/12/06 11:24:19;;;;;;;132.73;38.27;;;;;;;2.13;99.30;101332.22;5072272;28;20052;-63
2021/12/06 11:26:49;;;;;;;122.17;36.87;;;;;;;2.11;98.96;101329.72;5059383;28;20098;-63
2021/12/06 11:29:30;;;;;;;122.37;38.80;;;;;;;2.09;99.05;101315.88;5070762;28;20115;-63